createdAt,value
2023-03-29T00:00:18.736Z,65.44
2023-03-29T00:21:45.228Z,65.33
2023-03-29T00:24:16.407Z,65.07
2023-03-29T00:26:45.382Z,65.24
2023-03-29T00:29:15.842Z,65.28
2023-03-29T00:31:50.719Z,65.21
2023-03-29T00:34:25.744Z,65.32
2023-03-29T00:36:57.464Z,65.33
2023-03-29T00:39:27.384Z,65.48
2023-03-29T00:41:57.275Z,65.36
2023-03-29T00:45:04.106Z,65.35
2023-03-29T00:47:39.307Z,65.44
2023-03-29T00:50:15.964Z,65.26
2023-03-29T00:52:50.763Z,65.54
2023-03-29T00:55:23.546Z,65.45
2023-03-29T00:57:56.076Z,65.38
2023-03-29T01:00:31.706Z,65.47
2023-03-29T01:03:08.539Z,65.54
2023-03-29T01:05:41.531Z,65.53
2023-03-29T01:08:17.531Z,65.55
2023-03-29T01:10:55.231Z,65.35
2023-03-29T01:13:33.788Z,65.60
2023-03-29T01:16:06.107Z,65.52
2023-03-29T01:18:34.926Z,65.50
2023-03-29T01:21:14.307Z,65.53
2023-03-29T01:23:58.548Z,65.58
2023-03-29T01:26:36.673Z,65.62
2023-03-29T01:29:11.293Z,65.66
2023-03-29T01:31:46.048Z,65.65
2023-03-29T01:34:21.819Z,65.50
2023-03-29T01:36:58.247Z,65.51
2023-03-29T01:39:27.647Z,65.59
2023-03-29T01:42:07.419Z,65.65
2023-03-29T01:44:42.733Z,65.55
2023-03-29T01:47:19.205Z,65.71
2023-03-29T01:49:56.739Z,65.58
2023-03-29T01:52:30.190Z,65.74
2023-03-29T01:55:08.046Z,65.66
2023-03-29T01:57:39.742Z,65.55
2023-03-29T02:00:14.040Z,65.64
2023-03-29T02:02:45.017Z,65.53
2023-03-29T02:05:16.532Z,65.60
2023-03-29T02:07:48.019Z,65.66
2023-03-29T02:10:20.180Z,65.63
2023-03-29T02:12:50.160Z,65.68
2023-03-29T02:15:22.924Z,65.54
2023-03-29T02:17:52.671Z,65.54
2023-03-29T02:20:25.940Z,65.78
2023-03-29T02:23:04.053Z,65.81
2023-03-29T02:25:34.887Z,65.85
2023-03-29T02:28:06.178Z,65.69
2023-03-29T02:30:51.120Z,65.83
2023-03-29T02:33:25.162Z,65.74
2023-03-29T02:35:58.563Z,65.73
2023-03-29T02:38:29.313Z,65.88
2023-03-29T02:41:00.851Z,65.78
2023-03-29T02:43:30.750Z,65.84
2023-03-29T02:46:25.949Z,65.81
2023-03-29T02:48:57.345Z,65.81
2023-03-29T02:51:31.845Z,65.88
2023-03-29T02:54:05.311Z,65.66
2023-03-29T02:56:43.166Z,65.67
2023-03-29T02:59:12.197Z,65.69
2023-03-29T03:01:47.521Z,65.64
2023-03-29T03:04:20.053Z,65.73
2023-03-29T03:06:50.269Z,65.72
2023-03-29T03:09:27.699Z,65.72
2023-03-29T03:11:56.469Z,65.66
2023-03-29T03:14:30.814Z,65.61
2023-03-29T03:17:03.920Z,65.67
2023-03-29T03:19:36.735Z,65.67
2023-03-29T03:22:10.545Z,65.79
2023-03-29T03:24:40.445Z,65.82
2023-03-29T03:27:09.701Z,65.83
2023-03-29T03:29:40.943Z,65.97
2023-03-29T03:32:28.686Z,66.02
2023-03-29T03:35:45.923Z,65.94
2023-03-29T03:38:18.542Z,65.98
2023-03-29T03:40:55.051Z,66.12
2023-03-29T03:43:24.233Z,65.96
2023-03-29T03:45:58.333Z,65.98
2023-03-29T03:48:27.887Z,66.09
2023-03-29T03:51:02.870Z,65.91
2023-03-29T03:53:36.635Z,66.03
2023-03-29T03:56:19.998Z,66.04
2023-03-29T03:59:11.942Z,66.06
2023-03-29T04:02:07.393Z,65.96
2023-03-29T04:04:40.268Z,66.01
2023-03-29T04:07:19.404Z,66.10
2023-03-29T04:09:57.795Z,66.08
2023-03-29T04:12:45.356Z,65.96
2023-03-29T04:15:14.611Z,65.94
2023-03-29T04:17:49.179Z,66.04
2023-03-29T04:20:28.412Z,66.02
2023-03-29T04:22:57.458Z,66.05
2023-03-29T04:25:27.923Z,66.08
2023-03-29T04:28:24.636Z,66.23
2023-03-29T04:31:08.416Z,66.39
2023-03-29T04:33:46.902Z,66.36
2023-03-29T04:36:16.961Z,66.30
2023-03-29T04:38:48.721Z,66.42
2023-03-29T04:41:20.247Z,66.42
2023-03-29T04:43:56.116Z,66.37
2023-03-29T04:46:28.330Z,66.41
2023-03-29T04:49:17.927Z,66.43
2023-03-29T04:51:49.710Z,66.48
2023-03-29T04:54:21.986Z,66.52
2023-03-29T04:57:29.123Z,66.45
2023-03-29T05:00:14.526Z,66.52
2023-03-29T05:03:01.808Z,66.63
2023-03-29T05:05:35.454Z,66.59
2023-03-29T05:08:04.749Z,66.63
2023-03-29T05:10:43.700Z,66.61
2023-03-29T05:13:13.275Z,66.53
2023-03-29T05:15:43.562Z,66.45
2023-03-29T05:18:12.375Z,66.70
2023-03-29T05:20:42.161Z,66.61
2023-03-29T05:23:12.879Z,66.65
2023-03-29T05:26:07.631Z,66.60
2023-03-29T05:28:37.409Z,66.80
2023-03-29T05:31:08.009Z,66.92
2023-03-29T05:33:39.418Z,67.14
2023-03-29T05:36:19.423Z,67.21
2023-03-29T05:38:51.490Z,66.98
2023-03-29T05:41:27.910Z,67.08
2023-03-29T05:44:35.880Z,67.02
2023-03-29T05:47:13.912Z,66.99
2023-03-29T05:49:46.165Z,67.10
2023-03-29T05:52:19.111Z,67.07
2023-03-29T05:54:48.274Z,67.12
2023-03-29T05:57:18.976Z,67.20
2023-03-29T05:59:48.212Z,67.26
2023-03-29T06:02:19.719Z,67.21
2023-03-29T06:04:54.040Z,67.76
2023-03-29T06:07:26.328Z,68.71
2023-03-29T06:10:16.449Z,68.18
2023-03-29T06:12:49.693Z,68.16
2023-03-29T06:15:26.407Z,68.24
2023-03-29T06:18:06.377Z,68.76
2023-03-29T06:20:36.397Z,69.11
2023-03-29T06:23:09.833Z,69.36
2023-03-29T06:25:39.967Z,69.60
2023-03-29T06:28:09.240Z,69.36
2023-03-29T06:30:38.181Z,69.24
2023-03-29T06:33:07.744Z,69.88
2023-03-29T06:35:50.683Z,69.43
2023-03-29T06:38:24.223Z,67.96
2023-03-29T06:41:12.569Z,67.32
2023-03-29T06:44:06.373Z,66.64
2023-03-29T06:46:40.370Z,66.65
2023-03-29T06:49:13.371Z,66.64
2023-03-29T06:52:00.595Z,66.61
2023-03-29T06:54:29.457Z,66.85
2023-03-29T06:57:05.878Z,65.92
2023-03-29T06:59:35.421Z,65.83
2023-03-29T07:02:16.590Z,66.25
2023-03-29T07:04:54.013Z,65.71
2023-03-29T07:07:43.560Z,65.50
2023-03-29T07:10:25.693Z,65.82
2023-03-29T07:13:29.917Z,65.33
2023-03-29T07:16:00.225Z,64.94
2023-03-29T07:18:47.516Z,65.05
2023-03-29T07:21:37.964Z,65.30
2023-03-29T07:24:09.673Z,65.88
2023-03-29T07:26:43.980Z,66.27
2023-03-29T07:29:18.725Z,66.47
2023-03-29T07:31:47.795Z,66.34
2023-03-29T07:34:40.006Z,66.46
2023-03-29T07:37:10.054Z,66.73
2023-03-29T07:39:41.899Z,66.98
2023-03-29T07:42:40.325Z,67.56
2023-03-29T07:45:14.046Z,67.41
2023-03-29T07:47:57.019Z,67.10
2023-03-29T07:50:27.583Z,66.91
2023-03-29T07:53:00.322Z,66.26
2023-03-29T07:55:32.011Z,65.48
2023-03-29T07:58:21.506Z,65.38
2023-03-29T08:00:50.636Z,65.43
2023-03-29T08:03:46.142Z,64.91
2023-03-29T08:06:16.684Z,65.66
2023-03-29T08:08:45.689Z,65.81
2023-03-29T08:11:20.917Z,65.57
2023-03-29T08:13:59.742Z,64.78
2023-03-29T08:16:33.615Z,64.69
2023-03-29T08:19:14.383Z,64.74
2023-03-29T08:21:54.566Z,64.53
2023-03-29T08:24:25.964Z,64.35
2023-03-29T08:26:59.069Z,64.54
2023-03-29T08:29:28.666Z,64.38
2023-03-29T08:31:58.121Z,63.30
2023-03-29T08:34:28.216Z,62.06
2023-03-29T08:37:18.602Z,60.96
2023-03-29T08:39:51.609Z,60.56
2023-03-29T08:43:17.783Z,60.20
2023-03-29T08:46:11.723Z,59.59
2023-03-29T08:48:45.814Z,59.32
2023-03-29T08:51:24.788Z,59.72
2023-03-29T08:53:53.801Z,60.72
2023-03-29T08:56:33.496Z,61.02
2023-03-29T08:59:03.372Z,60.56
2023-03-29T09:01:39.309Z,60.55
2023-03-29T09:04:14.377Z,60.86
2023-03-29T09:07:13.245Z,60.82
2023-03-29T09:09:45.146Z,60.81
2023-03-29T09:12:43.778Z,60.59
2023-03-29T09:15:18.966Z,60.28
2023-03-29T09:18:06.451Z,59.95
2023-03-29T09:20:43.704Z,59.25
2023-03-29T09:23:26.468Z,59.63
2023-03-29T09:26:28.416Z,59.64
2023-03-29T09:29:38.400Z,59.47
2023-03-29T09:32:19.227Z,59.45
2023-03-29T09:35:01.147Z,59.29
2023-03-29T09:37:34.184Z,59.64
2023-03-29T09:40:11.575Z,59.59
2023-03-29T09:42:56.583Z,59.65
2023-03-29T09:45:25.526Z,59.33
2023-03-29T09:47:59.648Z,59.12
2023-03-29T09:50:35.041Z,59.28
2023-03-29T09:53:05.688Z,59.29
2023-03-29T09:55:41.734Z,58.97
2023-03-29T09:58:23.277Z,58.92
2023-03-29T10:00:57.769Z,58.68
2023-03-29T10:03:28.921Z,58.82
2023-03-29T10:06:12.165Z,59.13
2023-03-29T10:08:49.451Z,58.82
2023-03-29T10:11:24.074Z,58.79
2023-03-29T10:13:56.359Z,58.78
2023-03-29T10:16:29.598Z,58.30
2023-03-29T10:19:23.625Z,58.42
2023-03-29T10:21:54.543Z,58.35
2023-03-29T10:24:25.988Z,58.21
2023-03-29T10:26:58.977Z,58.06
2023-03-29T10:29:35.751Z,57.95
2023-03-29T10:32:17.313Z,58.29
2023-03-29T10:34:47.705Z,57.88
2023-03-29T10:37:18.921Z,57.74
2023-03-29T10:39:48.826Z,57.35
2023-03-29T10:42:23.575Z,57.40
2023-03-29T10:44:57.322Z,57.09
2023-03-29T10:47:33.838Z,56.79
2023-03-29T10:50:11.859Z,57.27
2023-03-29T10:52:41.283Z,57.34
2023-03-29T10:55:14.305Z,57.33
2023-03-29T10:57:55.869Z,57.44
2023-03-29T11:00:32.318Z,57.31
2023-03-29T11:03:15.244Z,57.11
2023-03-29T11:05:54.362Z,57.20
2023-03-29T11:08:33.807Z,57.25
2023-03-29T11:11:14.294Z,57.43
2023-03-29T11:13:56.518Z,57.15
2023-03-29T11:16:38.047Z,56.84
2023-03-29T11:19:25.927Z,57.11
2023-03-29T11:22:03.233Z,56.75
2023-03-29T11:24:49.724Z,56.98
2023-03-29T11:27:29.548Z,56.93
2023-03-29T11:30:07.663Z,56.76
2023-03-29T11:32:45.685Z,56.52
2023-03-29T11:35:35.963Z,56.72
2023-03-29T11:38:14.852Z,56.47
2023-03-29T11:40:56.153Z,56.47
2023-03-29T11:43:31.727Z,56.66
2023-03-29T11:46:08.304Z,56.41
2023-03-29T11:48:43.818Z,56.31
2023-03-29T11:51:18.573Z,56.08
2023-03-29T11:53:59.846Z,56.37
2023-03-29T11:56:38.136Z,56.54
2023-03-29T11:59:12.595Z,56.47
2023-03-29T12:01:46.837Z,56.45
2023-03-29T12:04:22.388Z,56.29
2023-03-29T12:06:56.711Z,56.08
2023-03-29T12:09:32.916Z,55.90
2023-03-29T12:12:11.241Z,55.82
2023-03-29T12:14:53.049Z,56.02
2023-03-29T12:17:28.047Z,55.83
2023-03-29T12:20:06.698Z,55.61
2023-03-29T12:22:39.118Z,55.52
2023-03-29T12:25:18.790Z,55.36
2023-03-29T12:28:03.174Z,55.33
2023-03-29T12:30:46.366Z,55.44
2023-03-29T12:33:33.688Z,55.28
2023-03-29T12:37:08.126Z,55.36
2023-03-29T12:40:05.676Z,55.06
2023-03-29T12:42:57.521Z,54.67
2023-03-29T12:45:56.802Z,54.74
2023-03-29T12:48:29.718Z,55.03
2023-03-29T12:51:02.810Z,55.04
2023-03-29T12:53:37.083Z,54.89
2023-03-29T12:56:13.306Z,54.92
2023-03-29T12:58:51.820Z,54.98
2023-03-29T13:01:32.180Z,54.93
2023-03-29T13:04:20.904Z,54.81
2023-03-29T13:07:07.554Z,54.65
2023-03-29T13:09:49.579Z,54.70
2023-03-29T13:12:27.267Z,54.54
2023-03-29T13:14:59.177Z,54.62
2023-03-29T13:17:40.827Z,54.53
2023-03-29T13:20:28.238Z,54.49
2023-03-29T13:23:17.914Z,54.31
2023-03-29T13:26:03.503Z,53.83
2023-03-29T13:28:50.611Z,53.96
2023-03-29T13:31:36.682Z,53.80
2023-03-29T13:34:14.597Z,53.76
2023-03-29T13:37:02.048Z,53.84
2023-03-29T13:39:36.349Z,53.70
2023-03-29T13:42:21.706Z,53.77
2023-03-29T13:44:51.836Z,53.72
2023-03-29T13:47:41.802Z,53.71
2023-03-29T13:50:20.825Z,53.66
2023-03-29T13:53:00.903Z,53.38
2023-03-29T13:55:35.530Z,53.26
2023-03-29T13:58:13.273Z,53.21
2023-03-29T14:00:48.281Z,53.12
2023-03-29T14:03:29.162Z,52.98
2023-03-29T14:06:01.289Z,52.98
2023-03-29T14:08:36.323Z,53.12
2023-03-29T14:11:08.761Z,53.17
2023-03-29T14:13:38.356Z,53.00
2023-03-29T14:16:11.667Z,53.21
2023-03-29T14:18:44.062Z,53.30
2023-03-29T14:21:14.628Z,53.26
2023-03-29T14:23:46.840Z,53.05
2023-03-29T14:26:19.843Z,52.97
2023-03-29T14:28:52.728Z,52.78
2023-03-29T14:31:26.238Z,52.73
2023-03-29T14:33:56.847Z,52.82
2023-03-29T14:36:27.841Z,52.76
2023-03-29T14:39:02.231Z,52.75
2023-03-29T14:41:34.034Z,52.89
2023-03-29T14:44:06.075Z,52.89
2023-03-29T14:46:38.267Z,52.80
2023-03-29T14:49:09.482Z,52.65
2023-03-29T14:51:40.171Z,52.42
2023-03-29T14:54:17.170Z,52.39
2023-03-29T14:56:47.698Z,52.60
2023-03-29T14:59:26.678Z,52.56
2023-03-29T15:01:57.086Z,52.67
2023-03-29T15:04:33.825Z,52.49
2023-03-29T15:07:13.076Z,52.40
2023-03-29T15:09:45.677Z,52.27
2023-03-29T15:12:23.804Z,52.33
2023-03-29T15:14:53.293Z,52.36
2023-03-29T15:17:46.997Z,52.43
2023-03-29T15:20:24.485Z,52.32
2023-03-29T15:22:57.666Z,52.39
2023-03-29T15:25:32.530Z,52.32
2023-03-29T15:28:01.764Z,52.27
2023-03-29T15:30:34.506Z,52.19
2023-03-29T15:33:22.154Z,52.25
2023-03-29T15:36:45.339Z,52.30
2023-03-29T15:39:27.364Z,52.22
2023-03-29T15:41:59.128Z,52.28
2023-03-29T15:44:32.216Z,52.32
2023-03-29T15:47:09.391Z,52.24
2023-03-29T15:49:39.786Z,52.36
2023-03-29T15:52:37.248Z,52.10
2023-03-29T15:55:08.579Z,52.16
2023-03-29T15:57:38.173Z,52.08
2023-03-29T16:00:18.340Z,52.12
2023-03-29T16:02:47.456Z,51.97
2023-03-29T16:05:19.549Z,52.00
2023-03-29T16:07:50.378Z,51.80
2023-03-29T16:10:19.904Z,51.75
2023-03-29T16:12:49.082Z,51.86
2023-03-29T16:15:24.014Z,51.82
2023-03-29T16:17:53.616Z,51.74
2023-03-29T16:20:28.619Z,51.69
2023-03-29T16:22:58.450Z,51.63
2023-03-29T16:25:28.959Z,51.61
2023-03-29T16:28:01.609Z,51.70
2023-03-29T16:30:31.728Z,51.52
2023-03-29T16:33:05.723Z,51.51
2023-03-29T16:35:43.263Z,51.42
2023-03-29T16:38:12.025Z,51.48
2023-03-29T16:40:42.044Z,51.43
2023-03-29T16:43:18.990Z,51.41
2023-03-29T16:45:48.109Z,51.32
2023-03-29T16:48:19.321Z,51.32
2023-03-29T16:50:49.139Z,51.26
2023-03-29T16:53:20.937Z,51.28
2023-03-29T16:55:50.613Z,51.26
2023-03-29T16:58:20.091Z,51.27
2023-03-29T17:00:49.262Z,51.30
2023-03-29T17:03:20.047Z,51.16
2023-03-29T17:05:49.900Z,51.16
2023-03-29T17:08:20.555Z,51.17
2023-03-29T17:10:55.074Z,51.13
2023-03-29T17:13:25.585Z,51.17
2023-03-29T17:15:56.633Z,51.08
2023-03-29T17:18:27.140Z,51.05
2023-03-29T17:20:58.874Z,51.05
2023-03-29T17:23:29.225Z,51.02
2023-03-29T17:25:58.128Z,51.02
2023-03-29T17:28:27.783Z,51.09
2023-03-29T17:30:58.177Z,51.04
2023-03-29T17:33:27.288Z,51.07
2023-03-29T17:35:56.097Z,51.03
2023-03-29T17:38:26.541Z,51.08
2023-03-29T17:40:55.685Z,51.02
2023-03-29T17:43:24.766Z,51.01
2023-03-29T17:45:56.324Z,51.06
2023-03-29T17:48:28.604Z,51.07
2023-03-29T17:50:59.007Z,51.06
2023-03-29T17:53:30.383Z,51.12
2023-03-29T17:56:00.265Z,51.08
2023-03-29T17:58:29.909Z,51.08
2023-03-29T18:00:58.640Z,51.15
2023-03-29T18:03:28.006Z,51.16
2023-03-29T18:05:57.483Z,51.09
2023-03-29T18:08:26.663Z,51.02
2023-03-29T18:10:55.812Z,51.09
2023-03-29T18:13:24.934Z,51.14
2023-03-29T18:15:56.660Z,51.13
2023-03-29T18:18:26.161Z,51.25
2023-03-29T18:20:55.518Z,51.18
2023-03-29T18:23:25.138Z,51.17
2023-03-29T18:26:02.315Z,51.09
2023-03-29T18:28:33.585Z,51.16
2023-03-29T18:31:02.671Z,51.26
2023-03-29T18:33:34.727Z,51.21
2023-03-29T18:36:09.095Z,51.27
2023-03-29T18:38:43.392Z,51.35
2023-03-29T18:41:14.011Z,51.24
2023-03-29T18:43:46.277Z,51.41
2023-03-29T18:46:17.455Z,51.31
2023-03-29T18:48:47.922Z,51.28
2023-03-29T18:51:25.278Z,51.31
2023-03-29T18:54:01.269Z,51.32
2023-03-29T18:56:31.402Z,51.39
2023-03-29T18:59:04.728Z,51.37
2023-03-29T19:01:41.400Z,51.33
2023-03-29T19:04:14.396Z,51.39
2023-03-29T19:06:49.016Z,51.41
2023-03-29T19:09:19.492Z,51.43
2023-03-29T19:11:48.435Z,51.49
2023-03-29T19:14:24.492Z,51.46
2023-03-29T19:16:53.654Z,51.47
2023-03-29T19:19:29.495Z,51.52
2023-03-29T19:22:09.468Z,51.56
2023-03-29T19:24:45.105Z,51.53
2023-03-29T19:27:14.394Z,51.55
2023-03-29T19:29:44.573Z,51.59
2023-03-29T19:32:13.834Z,51.61
2023-03-29T19:34:44.768Z,51.54
2023-03-29T19:37:16.744Z,51.67
2023-03-29T19:39:46.042Z,51.67
2023-03-29T19:42:15.794Z,51.74
2023-03-29T19:44:47.241Z,51.75
2023-03-29T19:47:18.029Z,51.71
2023-03-29T19:49:47.060Z,51.71
2023-03-29T19:52:19.800Z,51.72
2023-03-29T19:54:51.446Z,51.78
2023-03-29T19:57:21.030Z,51.73
2023-03-29T19:59:52.610Z,51.88
2023-03-29T20:02:21.646Z,51.75
2023-03-29T20:04:50.592Z,51.75
2023-03-29T20:07:19.419Z,51.78
2023-03-29T20:09:48.337Z,51.84
2023-03-29T20:12:17.704Z,51.86
2023-03-29T20:14:46.490Z,51.79
2023-03-29T20:17:15.799Z,51.81
2023-03-29T20:19:46.225Z,51.87
2023-03-29T20:22:14.906Z,51.81
2023-03-29T20:24:46.575Z,51.78
2023-03-29T20:27:16.661Z,51.80
2023-03-29T20:29:45.964Z,51.84
2023-03-29T20:32:16.940Z,51.86
2023-03-29T20:34:45.870Z,51.78
2023-03-29T20:37:15.031Z,51.92
2023-03-29T20:39:44.906Z,51.89
2023-03-29T20:42:13.885Z,51.76
2023-03-29T20:44:51.919Z,51.81
2023-03-29T20:47:22.869Z,51.70
2023-03-29T20:49:53.791Z,51.72
2023-03-29T20:52:24.166Z,51.84
2023-03-29T20:54:53.961Z,51.79
2023-03-29T20:57:22.637Z,51.73
2023-03-29T20:59:52.743Z,51.74
2023-03-29T21:02:25.379Z,51.75
2023-03-29T21:05:00.586Z,51.78
2023-03-29T21:07:35.940Z,51.74
2023-03-29T21:10:11.135Z,51.68
2023-03-29T21:12:40.953Z,51.65
2023-03-29T21:15:13.264Z,51.64
2023-03-29T21:17:42.670Z,51.57
2023-03-29T21:20:12.346Z,51.73
2023-03-29T21:22:42.879Z,51.83
2023-03-29T21:25:15.072Z,51.74
2023-03-29T21:27:46.757Z,51.79
2023-03-29T21:30:17.531Z,51.87
2023-03-29T21:32:47.085Z,51.73
2023-03-29T21:35:17.622Z,51.75
2023-03-29T21:37:46.621Z,51.85
2023-03-29T21:40:18.863Z,51.74
2023-03-29T21:42:48.837Z,51.93
2023-03-29T21:45:18.421Z,52.02
2023-03-29T21:47:47.353Z,51.96
2023-03-29T21:50:17.519Z,52.00
2023-03-29T21:52:46.518Z,52.07
2023-03-29T21:55:18.512Z,52.04
2023-03-29T21:57:48.430Z,52.09
2023-03-29T22:00:21.191Z,52.15
2023-03-29T22:02:49.895Z,52.24
2023-03-29T22:05:20.248Z,52.21
2023-03-29T22:07:49.915Z,52.30
2023-03-29T22:10:22.321Z,52.22
2023-03-29T22:12:52.616Z,52.22
2023-03-29T22:15:22.286Z,52.18
2023-03-29T22:17:53.295Z,52.30
2023-03-29T22:20:24.075Z,52.26
2023-03-29T22:22:53.486Z,52.40
2023-03-29T22:25:23.780Z,52.44
2023-03-29T22:27:54.344Z,52.41
2023-03-29T22:30:23.029Z,52.51
2023-03-29T22:32:51.787Z,52.62
2023-03-29T22:35:20.828Z,52.51
2023-03-29T22:37:49.558Z,52.66
2023-03-29T22:40:19.559Z,52.64
2023-03-29T22:42:50.596Z,52.70
2023-03-29T22:45:20.175Z,52.70
2023-03-29T22:47:49.067Z,52.69
2023-03-29T22:50:20.695Z,52.77
2023-03-29T22:52:54.721Z,52.89
2023-03-29T22:55:26.499Z,52.91
2023-03-29T22:57:55.203Z,52.91
2023-03-29T23:00:24.666Z,52.99
2023-03-29T23:02:53.470Z,52.96
2023-03-29T23:05:22.699Z,52.90
2023-03-29T23:07:52.151Z,52.90
2023-03-29T23:10:31.027Z,52.99
2023-03-29T23:13:08.557Z,53.09
2023-03-29T23:15:43.632Z,53.04
2023-03-29T23:18:15.035Z,53.07
2023-03-29T23:20:50.077Z,53.26
2023-03-29T23:23:20.811Z,53.18
2023-03-29T23:26:03.370Z,53.16
2023-03-29T23:28:33.744Z,53.16
2023-03-29T23:31:05.976Z,53.28
2023-03-29T23:33:38.074Z,53.26
2023-03-29T23:36:13.022Z,53.38
2023-03-29T23:38:43.925Z,53.39
2023-03-29T23:41:13.804Z,53.35
2023-03-29T23:43:46.388Z,53.46
2023-03-29T23:46:18.395Z,53.52
2023-03-29T23:48:48.511Z,53.39
2023-03-29T23:51:22.007Z,53.49
2023-03-29T23:53:51.713Z,53.52
2023-03-29T23:56:24.300Z,53.53
2023-03-29T23:58:53.106Z,53.55
